createdAt,value
2023-01-07T00:01:20.736Z,2.58
2023-01-07T00:04:10.439Z,3.15
2023-01-07T00:06:55.714Z,2.87
2023-01-07T00:09:41.067Z,2.78
2023-01-07T00:12:26.437Z,2.83
2023-01-07T00:15:11.861Z,2.80
2023-01-07T00:17:57.205Z,2.90
2023-01-07T00:20:42.650Z,2.50
2023-01-07T00:23:29.412Z,2.72
2023-01-07T00:26:20.707Z,2.60
2023-01-07T00:29:07.765Z,2.80
2023-01-07T00:31:53.789Z,2.70
2023-01-07T00:34:39.131Z,2.50
2023-01-07T00:37:47.497Z,2.47
2023-01-07T00:40:33.609Z,3.17
2023-01-07T00:43:18.928Z,2.60
2023-01-07T00:46:04.170Z,2.78
2023-01-07T00:48:50.025Z,2.53
2023-01-07T00:51:35.511Z,2.83
2023-01-07T00:54:21.036Z,2.85
2023-01-07T00:57:06.472Z,2.58
2023-01-07T00:59:51.980Z,2.70
2023-01-07T01:02:38.144Z,2.40
2023-01-07T01:05:23.242Z,2.55
2023-01-07T01:08:09.285Z,3.15
2023-01-07T01:10:54.864Z,2.55
2023-01-07T01:13:40.348Z,2.72
2023-01-07T01:16:25.742Z,2.47
2023-01-07T01:19:11.701Z,2.70
2023-01-07T01:21:57.507Z,2.63
2023-01-07T01:24:42.969Z,2.40
2023-01-07T01:27:31.178Z,2.60
2023-01-07T01:30:16.786Z,2.20
2023-01-07T01:33:02.806Z,2.55
2023-01-07T01:35:48.106Z,2.80
2023-01-07T01:38:33.667Z,2.63
2023-01-07T01:41:19.662Z,2.67
2023-01-07T01:44:33.821Z,2.40
2023-01-07T01:47:43.394Z,2.30
2023-01-07T01:50:38.536Z,2.53
2023-01-07T01:53:28.575Z,2.60
2023-01-07T01:56:19.585Z,2.67
2023-01-07T01:59:08.910Z,2.60
2023-01-07T02:01:56.626Z,2.55
2023-01-07T02:04:42.882Z,2.95
2023-01-07T02:07:28.468Z,2.92
2023-01-07T02:10:22.384Z,2.40
2023-01-07T02:13:20.825Z,2.63
2023-01-07T02:16:36.999Z,2.35
2023-01-07T02:19:44.148Z,2.30
2023-01-07T02:22:38.683Z,2.35
2023-01-07T02:25:49.336Z,2.35
2023-01-07T02:28:43.983Z,2.47
2023-01-07T02:31:51.350Z,2.50
2023-01-07T02:35:02.156Z,2.35
2023-01-07T02:37:59.718Z,2.10
2023-01-07T02:41:02.854Z,2.17
2023-01-07T02:44:19.136Z,2.40
2023-01-07T02:47:28.494Z,2.15
2023-01-07T02:50:17.044Z,2.28
2023-01-07T02:53:03.056Z,2.35
2023-01-07T02:56:07.206Z,2.47
2023-01-07T02:59:14.755Z,2.13
2023-01-07T03:02:15.659Z,2.47
2023-01-07T03:05:10.139Z,2.30
2023-01-07T03:08:02.062Z,2.03
2023-01-07T03:10:59.125Z,2.30
2023-01-07T03:13:56.483Z,2.20
2023-01-07T03:16:45.334Z,2.40
2023-01-07T03:19:35.133Z,2.47
2023-01-07T03:22:23.723Z,2.05
2023-01-07T03:25:17.936Z,2.40
2023-01-07T03:28:07.976Z,2.27
2023-01-07T03:30:56.699Z,2.30
2023-01-07T03:34:09.232Z,2.20
2023-01-07T03:37:01.589Z,2.33
2023-01-07T03:39:48.036Z,2.17
2023-01-07T03:42:40.219Z,2.40
2023-01-07T03:45:30.471Z,2.20
2023-01-07T03:48:17.838Z,2.20
2023-01-07T03:51:03.223Z,2.05
2023-01-07T03:53:48.673Z,2.08
2023-01-07T03:56:34.396Z,2.00
2023-01-07T03:59:19.798Z,2.20
2023-01-07T04:02:06.330Z,2.28
2023-01-07T04:04:52.678Z,2.17
2023-01-07T04:07:39.577Z,2.45
2023-01-07T04:10:24.993Z,2.07
2023-01-07T04:13:10.952Z,2.00
2023-01-07T04:15:56.801Z,2.08
2023-01-07T04:18:43.398Z,1.85
2023-01-07T04:21:28.652Z,2.03
2023-01-07T04:24:14.692Z,1.90
2023-01-07T04:27:01.033Z,2.00
2023-01-07T04:29:46.410Z,2.17
2023-01-07T04:32:31.856Z,1.85
2023-01-07T04:35:17.114Z,1.92
2023-01-07T04:38:02.604Z,1.90
2023-01-07T04:40:49.344Z,1.65
2023-01-07T04:43:36.279Z,1.85
2023-01-07T04:46:25.458Z,2.20
2023-01-07T04:49:11.917Z,2.00
2023-01-07T04:51:57.692Z,1.80
2023-01-07T04:54:43.419Z,1.90
2023-01-07T04:57:28.897Z,2.10
2023-01-07T05:00:15.032Z,2.00
2023-01-07T05:03:03.614Z,2.20
2023-01-07T05:05:50.021Z,1.77
2023-01-07T05:08:37.251Z,1.80
2023-01-07T05:11:23.237Z,1.95
2023-01-07T05:14:15.560Z,1.90
2023-01-07T05:17:01.579Z,2.13
2023-01-07T05:19:48.804Z,2.00
2023-01-07T05:22:34.866Z,1.98
2023-01-07T05:25:21.755Z,1.98
2023-01-07T05:28:07.221Z,1.85
2023-01-07T05:30:55.841Z,1.90
2023-01-07T05:33:41.561Z,1.87
2023-01-07T05:36:27.113Z,1.85
2023-01-07T05:39:12.926Z,1.90
2023-01-07T05:41:59.709Z,1.90
2023-01-07T05:44:45.410Z,1.98
2023-01-07T05:47:30.866Z,1.80
2023-01-07T05:50:16.177Z,1.98
2023-01-07T05:53:01.516Z,1.75
2023-01-07T05:55:46.636Z,1.80
2023-01-07T05:58:31.928Z,2.00
2023-01-07T06:01:17.437Z,1.63
2023-01-07T06:04:02.737Z,1.92
2023-01-07T06:06:47.992Z,1.55
2023-01-07T06:09:33.417Z,1.80
2023-01-07T06:12:19.145Z,2.00
2023-01-07T06:15:07.126Z,2.13
2023-01-07T06:17:52.777Z,1.85
2023-01-07T06:20:38.401Z,2.00
2023-01-07T06:23:23.984Z,1.83
2023-01-07T06:26:09.729Z,1.92
2023-01-07T06:28:55.066Z,2.00
2023-01-07T06:31:40.485Z,1.70
2023-01-07T06:34:25.791Z,1.90
2023-01-07T06:37:11.124Z,1.83
2023-01-07T06:39:56.744Z,1.70
2023-01-07T06:42:42.380Z,1.53
2023-01-07T06:45:27.963Z,1.80
2023-01-07T06:48:13.499Z,1.88
2023-01-07T06:50:58.902Z,1.50
2023-01-07T06:53:44.589Z,1.65
2023-01-07T06:56:30.403Z,1.70
2023-01-07T06:59:15.751Z,1.63
2023-01-07T07:02:01.210Z,1.88
2023-01-07T07:04:46.420Z,1.50
2023-01-07T07:07:33.941Z,1.80
2023-01-07T07:10:19.413Z,1.77
2023-01-07T07:13:05.252Z,1.60
2023-01-07T07:15:50.489Z,1.60
2023-01-07T07:18:36.005Z,1.77
2023-01-07T07:21:21.418Z,1.60
2023-01-07T07:24:07.004Z,1.67
2023-01-07T07:26:52.308Z,1.70
2023-01-07T07:29:37.858Z,1.80
2023-01-07T07:32:28.264Z,1.52
2023-01-07T07:35:13.537Z,1.40
2023-01-07T07:37:58.937Z,1.50
2023-01-07T07:40:44.691Z,1.70
2023-01-07T07:43:29.900Z,1.58
2023-01-07T07:46:15.750Z,1.40
2023-01-07T07:49:01.362Z,1.45
2023-01-07T07:51:46.781Z,1.50
2023-01-07T07:54:32.397Z,1.30
2023-01-07T07:57:17.986Z,1.40
2023-01-07T08:00:05.583Z,1.60
2023-01-07T08:03:00.858Z,1.50
2023-01-07T08:05:46.543Z,1.20
2023-01-07T08:08:32.101Z,1.05
2023-01-07T08:11:17.489Z,1.42
2023-01-07T08:14:03.026Z,1.40
2023-01-07T08:16:48.544Z,1.38
2023-01-07T08:19:34.036Z,1.47
2023-01-07T08:22:19.289Z,1.30
2023-01-07T08:25:04.920Z,1.70
2023-01-07T08:27:50.739Z,1.38
2023-01-07T08:30:36.351Z,1.35
2023-01-07T08:33:22.268Z,1.50
2023-01-07T08:36:22.203Z,1.10
2023-01-07T08:39:08.537Z,1.30
2023-01-07T08:41:55.174Z,1.20
2023-01-07T08:44:41.009Z,1.48
2023-01-07T08:47:27.998Z,1.47
2023-01-07T08:50:13.526Z,1.55
2023-01-07T08:52:59.628Z,1.25
2023-01-07T08:55:45.714Z,1.10
2023-01-07T08:58:31.363Z,1.40
2023-01-07T09:01:16.907Z,1.30
2023-01-07T09:04:02.122Z,1.45
2023-01-07T09:06:47.471Z,1.25
2023-01-07T09:09:33.065Z,1.20
2023-01-07T09:12:18.428Z,1.30
2023-01-07T09:15:04.461Z,1.40
2023-01-07T09:17:49.986Z,1.30
2023-01-07T09:20:35.593Z,1.20
2023-01-07T09:23:21.310Z,1.77
2023-01-07T09:26:06.790Z,1.20
2023-01-07T09:28:53.080Z,0.90
2023-01-07T09:31:38.222Z,1.38
2023-01-07T09:34:23.623Z,1.52
2023-01-07T09:37:08.885Z,1.40
2023-01-07T09:39:54.616Z,1.10
2023-01-07T09:42:50.005Z,1.20
2023-01-07T09:45:40.875Z,1.25
2023-01-07T09:48:35.114Z,1.00
2023-01-07T09:51:27.125Z,1.30
2023-01-07T09:54:30.533Z,1.10
2023-01-07T09:57:17.853Z,1.50
2023-01-07T10:00:10.849Z,1.38
2023-01-07T10:03:20.679Z,1.80
2023-01-07T10:06:14.413Z,1.83
2023-01-07T10:09:38.133Z,1.60
2023-01-07T10:12:33.218Z,1.90
2023-01-07T10:15:41.640Z,1.40
2023-01-07T10:18:33.682Z,1.60
2023-01-07T10:21:18.971Z,1.67
2023-01-07T10:24:12.032Z,1.25
2023-01-07T10:27:03.036Z,1.30
2023-01-07T10:29:59.246Z,1.70
2023-01-07T10:32:46.738Z,1.33
2023-01-07T10:35:36.788Z,1.40
2023-01-07T10:38:22.132Z,1.42
2023-01-07T10:41:31.084Z,1.87
2023-01-07T10:44:29.815Z,2.00
2023-01-07T10:47:15.304Z,2.28
2023-01-07T10:50:43.123Z,1.30
2023-01-07T10:54:05.761Z,1.60
2023-01-07T10:56:58.297Z,1.57
2023-01-07T10:59:50.594Z,2.65
2023-01-07T11:02:38.174Z,2.60
2023-01-07T11:05:34.120Z,2.63
2023-01-07T11:08:37.609Z,2.17
2023-01-07T11:11:25.125Z,2.00
2023-01-07T11:14:24.673Z,1.90
2023-01-07T11:17:30.371Z,1.80
2023-01-07T11:20:54.869Z,1.70
2023-01-07T11:23:43.857Z,1.80
2023-01-07T11:26:33.098Z,1.67
2023-01-07T11:29:35.718Z,1.48
2023-01-07T11:32:28.578Z,1.63
2023-01-07T11:35:24.277Z,1.48
2023-01-07T11:38:28.499Z,1.70
2023-01-07T11:41:26.608Z,1.63
2023-01-07T11:44:17.056Z,1.75
2023-01-07T11:47:03.716Z,1.63
2023-01-07T11:49:49.480Z,1.50
2023-01-07T11:53:19.071Z,1.30
2023-01-07T11:56:12.671Z,1.30
2023-01-07T11:59:13.782Z,1.45
2023-01-07T12:02:00.141Z,1.80
2023-01-07T12:04:45.851Z,1.30
2023-01-07T12:07:31.195Z,1.70
2023-01-07T12:10:31.695Z,1.53
2023-01-07T12:13:30.852Z,1.20
2023-01-07T12:16:52.094Z,1.40
2023-01-07T12:20:16.069Z,1.75
2023-01-07T12:23:07.459Z,1.63
2023-01-07T12:26:02.132Z,1.63
2023-01-07T12:28:53.861Z,1.90
2023-01-07T12:32:10.191Z,1.80
2023-01-07T12:35:32.004Z,1.67
2023-01-07T12:38:25.333Z,1.80
2023-01-07T12:41:28.467Z,2.00
2023-01-07T12:44:21.976Z,2.10
2023-01-07T12:47:32.954Z,1.70
2023-01-07T12:50:29.033Z,1.60
2023-01-07T12:53:26.368Z,1.70
2023-01-07T12:56:20.881Z,1.80
2023-01-07T12:59:46.999Z,1.67
2023-01-07T13:02:35.384Z,1.75
2023-01-07T13:05:29.996Z,1.60
2023-01-07T13:08:17.495Z,1.90
2023-01-07T13:11:14.541Z,1.80
2023-01-07T13:14:00.877Z,1.60
2023-01-07T13:16:46.825Z,1.70
2023-01-07T13:19:32.675Z,1.50
2023-01-07T13:22:41.273Z,1.80
2023-01-07T13:25:46.230Z,1.60
2023-01-07T13:28:52.039Z,1.80
2023-01-07T13:31:59.579Z,1.60
2023-01-07T13:35:14.246Z,1.40
2023-01-07T13:38:16.172Z,1.77
2023-01-07T13:41:39.757Z,1.50
2023-01-07T13:44:54.772Z,1.60
2023-01-07T13:47:50.885Z,1.70
2023-01-07T13:50:43.441Z,1.70
2023-01-07T13:53:46.413Z,2.00
2023-01-07T13:56:37.609Z,1.80
2023-01-07T13:59:46.796Z,1.80
2023-01-07T14:02:55.953Z,1.92
2023-01-07T14:05:41.959Z,2.05
2023-01-07T14:08:29.011Z,2.20
2023-01-07T14:11:15.767Z,2.03
2023-01-07T14:14:29.964Z,2.08
2023-01-07T14:17:21.659Z,2.35
2023-01-07T14:20:32.508Z,2.30
2023-01-07T14:23:28.039Z,2.25
2023-01-07T14:26:30.750Z,2.30
2023-01-07T14:29:16.179Z,2.10
2023-01-07T14:32:21.200Z,2.30
2023-01-07T14:35:08.128Z,2.38
2023-01-07T14:37:53.805Z,2.22
2023-01-07T14:40:42.137Z,2.00
2023-01-07T14:43:46.050Z,2.05
2023-01-07T14:46:37.304Z,2.30
2023-01-07T14:49:22.970Z,3.53
2023-01-07T14:52:28.250Z,4.22
2023-01-07T14:55:46.117Z,3.80
2023-01-07T14:58:55.996Z,3.72
2023-01-07T15:02:19.170Z,4.03
2023-01-07T15:05:24.382Z,3.60
2023-01-07T15:08:35.627Z,3.88
2023-01-07T15:11:43.708Z,3.50
2023-01-07T15:15:05.232Z,3.80
2023-01-07T15:17:50.706Z,3.83
2023-01-07T15:20:57.966Z,3.45
2023-01-07T15:24:05.781Z,3.83
2023-01-07T15:27:19.271Z,3.30
2023-01-07T15:30:48.523Z,3.78
2023-01-07T15:34:02.694Z,3.67
2023-01-07T15:36:51.964Z,3.72
2023-01-07T15:39:44.088Z,3.20
2023-01-07T15:42:30.140Z,3.37
2023-01-07T15:45:18.984Z,3.20
2023-01-07T15:48:12.931Z,3.47
2023-01-07T15:51:00.103Z,3.22
2023-01-07T15:53:55.061Z,3.28
2023-01-07T15:56:41.452Z,3.23
2023-01-07T15:59:42.354Z,3.17
2023-01-07T16:02:33.116Z,3.75
2023-01-07T16:05:19.602Z,3.13
2023-01-07T16:08:05.374Z,3.25
2023-01-07T16:11:00.684Z,3.20
2023-01-07T16:13:57.294Z,3.58
2023-01-07T16:16:43.523Z,3.00
2023-01-07T16:19:29.314Z,3.38
2023-01-07T16:22:21.442Z,3.33
2023-01-07T16:25:16.792Z,3.20
2023-01-07T16:28:03.762Z,3.60
2023-01-07T16:30:51.711Z,3.42
2023-01-07T16:33:38.278Z,3.55
2023-01-07T16:36:24.852Z,3.75
2023-01-07T16:39:22.687Z,3.50
2023-01-07T16:42:24.844Z,3.60
2023-01-07T16:45:24.278Z,3.75
2023-01-07T16:48:19.867Z,3.88
2023-01-07T16:51:37.178Z,4.50
2023-01-07T16:54:26.104Z,4.43
2023-01-07T16:57:11.394Z,4.70
2023-01-07T17:00:11.936Z,4.47
2023-01-07T17:03:03.870Z,3.90
2023-01-07T17:06:05.889Z,4.10
2023-01-07T17:08:54.257Z,3.67
2023-01-07T17:11:40.210Z,3.55
2023-01-07T17:14:34.638Z,3.78
2023-01-07T17:17:32.316Z,2.80
2023-01-07T17:20:22.677Z,2.90
2023-01-07T17:23:27.179Z,3.70
2023-01-07T17:26:21.602Z,3.45
2023-01-07T17:29:13.425Z,3.20
2023-01-07T17:31:59.656Z,3.67
2023-01-07T17:34:45.019Z,3.25
2023-01-07T17:37:37.293Z,3.40
2023-01-07T17:40:22.579Z,3.20
2023-01-07T17:43:34.302Z,3.53
2023-01-07T17:46:19.919Z,3.72
2023-01-07T17:49:06.001Z,4.78
2023-01-07T17:51:54.511Z,5.30
2023-01-07T17:54:41.328Z,4.50
2023-01-07T17:57:26.894Z,4.22
2023-01-07T18:00:21.449Z,3.80
2023-01-07T18:03:07.084Z,4.30
2023-01-07T18:05:55.279Z,3.90
2023-01-07T18:08:41.000Z,3.88
2023-01-07T18:11:46.971Z,4.40
2023-01-07T18:14:33.006Z,3.63
2023-01-07T18:17:18.729Z,4.20
2023-01-07T18:20:05.405Z,4.03
2023-01-07T18:22:51.273Z,3.60
2023-01-07T18:25:36.822Z,3.60
2023-01-07T18:28:22.161Z,3.53
2023-01-07T18:31:07.964Z,4.15
2023-01-07T18:33:53.291Z,3.33
2023-01-07T18:36:38.565Z,3.78
2023-01-07T18:39:23.849Z,3.58
2023-01-07T18:42:09.325Z,3.95
2023-01-07T18:44:54.624Z,4.00
2023-01-07T18:47:40.157Z,3.80
2023-01-07T18:50:25.815Z,3.67
2023-01-07T18:53:12.529Z,3.85
2023-01-07T18:55:59.801Z,3.80
2023-01-07T18:58:45.619Z,3.65
2023-01-07T19:01:31.370Z,3.80
2023-01-07T19:04:17.198Z,3.90
2023-01-07T19:07:03.648Z,4.00
2023-01-07T19:09:49.523Z,3.65
2023-01-07T19:12:34.666Z,3.80
2023-01-07T19:15:20.054Z,3.20
2023-01-07T19:18:05.666Z,3.45
2023-01-07T19:20:51.138Z,3.50
2023-01-07T19:23:36.615Z,4.05
2023-01-07T19:26:22.228Z,3.35
2023-01-07T19:29:08.220Z,3.77
2023-01-07T19:31:54.023Z,3.60
2023-01-07T19:34:39.260Z,3.67
2023-01-07T19:37:24.560Z,3.67
2023-01-07T19:40:14.422Z,3.40
2023-01-07T19:43:00.615Z,3.93
2023-01-07T19:45:57.618Z,3.78
2023-01-07T19:48:44.820Z,3.38
2023-01-07T19:51:32.443Z,3.53
2023-01-07T19:54:18.512Z,3.25
2023-01-07T19:57:04.361Z,3.43
2023-01-07T19:59:50.223Z,3.22
2023-01-07T20:02:38.164Z,3.47
2023-01-07T20:05:25.944Z,3.17
2023-01-07T20:08:13.663Z,3.53
2023-01-07T20:11:02.075Z,3.50
2023-01-07T20:13:49.104Z,3.20
2023-01-07T20:16:37.237Z,3.58
2023-01-07T20:19:25.389Z,3.13
2023-01-07T20:22:11.366Z,3.50
2023-01-07T20:24:57.113Z,3.17
2023-01-07T20:27:43.034Z,3.30
2023-01-07T20:30:29.146Z,3.40
2023-01-07T20:33:15.336Z,3.10
2023-01-07T20:36:10.113Z,3.38
2023-01-07T20:38:56.740Z,3.10
2023-01-07T20:41:57.483Z,2.95
2023-01-07T20:44:43.554Z,3.10
2023-01-07T20:47:29.176Z,3.13
2023-01-07T20:50:15.560Z,2.95
2023-01-07T20:53:02.210Z,3.10
2023-01-07T20:55:49.460Z,3.25
2023-01-07T20:58:36.358Z,3.33
2023-01-07T21:01:22.291Z,3.08
2023-01-07T21:04:08.011Z,3.10
2023-01-07T21:06:53.659Z,2.90
2023-01-07T21:09:39.091Z,2.88
2023-01-07T21:12:24.474Z,3.17
2023-01-07T21:15:16.005Z,2.83
2023-01-07T21:18:01.643Z,2.75
2023-01-07T21:20:48.234Z,3.07
2023-01-07T21:23:34.729Z,3.20
2023-01-07T21:26:21.450Z,3.20
2023-01-07T21:29:07.027Z,2.95
2023-01-07T21:31:53.500Z,3.17
2023-01-07T21:34:51.678Z,2.93
2023-01-07T21:37:56.757Z,3.55
2023-01-07T21:40:57.926Z,3.00
2023-01-07T21:43:49.684Z,3.10
2023-01-07T21:46:48.078Z,3.05
2023-01-07T21:49:56.746Z,3.90
2023-01-07T21:52:56.008Z,5.00
2023-01-07T22:14:41.970Z,4.57
2023-01-07T22:17:31.202Z,3.95
2023-01-07T22:20:16.976Z,4.57
2023-01-07T22:23:02.569Z,4.40
2023-01-07T22:25:59.992Z,4.40
2023-01-07T22:28:55.135Z,4.47
2023-01-07T22:31:41.203Z,4.10
2023-01-07T22:34:26.966Z,4.03
2023-01-07T22:37:19.868Z,4.18
2023-01-07T22:40:06.947Z,4.23
2023-01-07T22:42:57.255Z,4.32
2023-01-07T22:45:52.921Z,4.15
2023-01-07T22:48:38.983Z,3.90
2023-01-07T22:51:30.076Z,4.10
2023-01-07T22:54:16.993Z,3.80
2023-01-07T22:57:05.837Z,4.00
2023-01-07T22:59:51.419Z,4.05
2023-01-07T23:02:37.088Z,3.95
2023-01-07T23:05:23.223Z,4.00
2023-01-07T23:08:09.019Z,3.90
2023-01-07T23:10:57.273Z,3.90
2023-01-07T23:13:42.863Z,4.18
2023-01-07T23:16:48.675Z,4.30
2023-01-07T23:19:39.694Z,3.67
2023-01-07T23:22:25.096Z,4.07
2023-01-07T23:25:10.864Z,4.00
2023-01-07T23:27:56.875Z,3.95
2023-01-07T23:30:42.711Z,3.80
2023-01-07T23:33:27.851Z,3.65
2023-01-07T23:36:13.230Z,4.20
2023-01-07T23:38:58.506Z,3.70
2023-01-07T23:41:44.016Z,3.92
2023-01-07T23:44:29.635Z,3.40
2023-01-07T23:47:15.049Z,3.70
2023-01-07T23:50:00.632Z,3.50
2023-01-07T23:52:45.761Z,3.70
2023-01-07T23:55:31.212Z,3.70
2023-01-07T23:58:16.876Z,3.33
